Time;durP1;ratioP1;P1;durP2;ratioP2;P2;SDS_P1;SDS_P2;PMS_P1;PMS_P2;Temp;Humidity;BMP_temperature;BMP_pressure;BME280_temperature;BME280_humidity;BME280_pressure;Samples;Min_cycle;Max_cycle;Signal;HPM_P1;HPM_P2
2021/09/13 00:02:30;;;;;;;18.40;13.25;;;;;;;;;;5070458;28;20052;-66
2021/09/13 00:05:35;;;;;;;28.33;13.95;;;;;;;;;;5071487;28;20055;-66
2021/09/13 00:08:42;;;;;;;27.95;14.77;;;;;;;;;;5074414;28;20056;-66
2021/09/13 00:11:46;;;;;;;22.02;13.68;;;;;;;;;;5074817;28;20035;-66
2021/09/13 00:14:51;;;;;;;20.65;13.18;;;;;;;;;;5074628;28;20047;-66
2021/09/13 00:17:55;;;;;;;21.50;13.85;;;;;;;;;;5073822;28;20036;-66
2021/09/13 00:21:00;;;;;;;20.77;13.30;;;;;;;;;;5074138;28;20051;-66
2021/09/13 00:24:04;;;;;;;17.42;13.30;;;;;;;;;;5074423;28;20044;-66
2021/09/13 00:27:09;;;;;;;19.02;13.70;;;;;;;;;;5074104;28;20047;-66
2021/09/13 00:30:13;;;;;;;18.10;12.93;;;;;;;;;;5074004;28;20043;-66
2021/09/13 00:33:18;;;;;;;20.30;12.63;;;;;;;;;;5074145;28;20507;-66
2021/09/13 00:36:23;;;;;;;23.75;13.00;;;;;;;;;;5073500;28;20396;-66
2021/09/13 00:39:28;;;;;;;19.92;12.60;;;;;;;;;;5073957;28;20561;-66
2021/09/13 00:42:35;;;;;;;18.50;12.38;;;;;;;;;;5073058;28;20051;-66
2021/09/13 00:45:39;;;;;;;19.05;12.85;;;;;;;;;;5073001;28;20420;-66
2021/09/13 00:48:44;;;;;;;20.02;12.73;;;;;;;;;;5074112;28;20043;-66
2021/09/13 00:51:49;;;;;;;21.25;13.38;;;;;;;;;;5073972;28;20041;-66
2021/09/13 00:54:53;;;;;;;15.73;12.93;;;;;;;;;;5073721;28;20051;-66
2021/09/13 00:57:58;;;;;;;21.05;11.98;;;;;;;;;;5073758;28;20035;-66
2021/09/13 01:01:03;;;;;;;23.63;13.68;;;;;;;;;;5073527;28;20052;-66
2021/09/13 01:04:07;;;;;;;24.70;15.43;;;;;;;;;;5072769;28;20035;-66
2021/09/13 01:07:13;;;;;;;20.77;13.82;;;;;;;;;;5072677;28;20055;-66
2021/09/13 01:10:18;;;;;;;18.20;13.23;;;;;;;;;;5073334;28;20379;-66
2021/09/13 01:13:22;;;;;;;23.80;14.63;;;;;;;;;;5073345;28;20067;-66
2021/09/13 01:16:26;;;;;;;22.30;13.13;;;;;;;;;;5073507;28;20047;-65
2021/09/13 01:19:30;;;;;;;19.02;13.40;;;;;;;;;;5072303;28;20404;-66
2021/09/13 01:22:35;;;;;;;20.48;12.73;;;;;;;;;;5072374;28;20056;-66
2021/09/13 01:25:44;;;;;;;19.05;13.45;;;;;;;;;;5072386;28;20039;-66
2021/09/13 01:28:56;;;;;;;26.38;13.13;;;;;;;;;;5072265;28;20411;-66
2021/09/13 01:32:08;;;;;;;19.27;13.20;;;;;;;;;;5072268;28;20047;-66
2021/09/13 01:35:25;;;;;;;23.88;12.70;;;;;;;;;;5072188;28;20388;-66
2021/09/13 01:38:33;;;;;;;18.23;13.00;;;;;;;;;;5072297;28;20388;-66
2021/09/13 01:41:39;;;;;;;19.10;12.77;;;;;;;;;;5072031;28;20071;-66
2021/09/13 01:44:45;;;;;;;26.10;14.85;;;;;;;;;;5060660;28;20044;-66
2021/09/13 01:47:50;;;;;;;18.42;13.80;;;;;;;;;;5072951;28;20062;-66
2021/09/13 01:50:55;;;;;;;17.05;12.43;;;;;;;;;;5071680;28;20503;-66
2021/09/13 01:54:05;;;;;;;17.40;12.88;;;;;;;;;;5072858;28;20044;-66
2021/09/13 01:57:11;;;;;;;18.60;12.10;;;;;;;;;;5072469;28;20039;-66
2021/09/13 02:00:17;;;;;;;17.33;11.98;;;;;;;;;;5071923;28;20395;-66
2021/09/13 02:03:25;;;;;;;18.50;12.52;;;;;;;;;;5071466;28;20040;-66
2021/09/13 02:06:32;;;;;;;16.35;12.50;;;;;;;;;;5072383;28;20052;-65
2021/09/13 02:09:36;;;;;;;17.20;11.55;;;;;;;;;;5071294;28;20047;-66
2021/09/13 02:12:49;;;;;;;16.73;12.15;;;;;;;;;;5059912;28;20044;-66
2021/09/13 02:15:53;;;;;;;21.40;13.45;;;;;;;;;;5071312;28;20044;-66
2021/09/13 02:19:00;;;;;;;17.17;12.30;;;;;;;;;;5071274;28;20507;-66
2021/09/13 02:22:04;;;;;;;14.82;12.57;;;;;;;;;;5071104;28;20051;-65
2021/09/13 02:25:12;;;;;;;18.67;12.27;;;;;;;;;;5071332;28;20052;-65
2021/09/13 02:28:18;;;;;;;16.10;12.82;;;;;;;;;;5070265;28;20043;-65
2021/09/13 02:31:22;;;;;;;21.25;12.68;;;;;;;;;;5071108;28;20660;-67
2021/09/13 02:34:27;;;;;;;18.45;12.95;;;;;;;;;;5071077;28;20043;-66
2021/09/13 02:37:35;;;;;;;17.15;12.38;;;;;;;;;;5071711;28;20420;-66
2021/09/13 02:40:41;;;;;;;16.17;12.25;;;;;;;;;;5071077;28;20047;-66
2021/09/13 02:43:46;;;;;;;17.42;12.13;;;;;;;;;;5070711;28;20047;-66
2021/09/13 02:46:50;;;;;;;16.48;12.35;;;;;;;;;;5070915;28;20028;-66
2021/09/13 02:49:54;;;;;;;14.98;12.30;;;;;;;;;;5071457;28;20048;-66
2021/09/13 02:53:01;;;;;;;18.45;12.63;;;;;;;;;;5070545;28;20036;-66
2021/09/13 02:56:07;;;;;;;20.10;13.30;;;;;;;;;;5070811;28;20047;-65
2021/09/13 02:59:16;;;;;;;15.38;12.60;;;;;;;;;;5070592;28;20047;-66
2021/09/13 03:02:21;;;;;;;15.32;12.32;;;;;;;;;;5071350;28;20055;-66
2021/09/13 03:05:25;;;;;;;22.83;13.07;;;;;;;;;;5070426;28;20040;-66
2021/09/13 03:08:32;;;;;;;17.48;13.02;;;;;;;;;;5070271;28;20190;-66
2021/09/13 03:11:36;;;;;;;14.82;12.50;;;;;;;;;;5070538;28;20048;-66
2021/09/13 03:14:41;;;;;;;19.02;13.15;;;;;;;;;;5070198;28;20601;-66
2021/09/13 03:17:47;;;;;;;16.98;13.10;;;;;;;;;;5070243;28;20515;-66
2021/09/13 03:20:51;;;;;;;15.55;12.65;;;;;;;;;;5070203;28;20043;-66
2021/09/13 03:23:56;;;;;;;17.27;12.68;;;;;;;;;;5070232;28;20384;-66
2021/09/13 03:27:02;;;;;;;16.95;12.57;;;;;;;;;;5070185;28;20039;-66
2021/09/13 03:30:10;;;;;;;15.15;13.23;;;;;;;;;;5069998;28;20051;-66
2021/09/13 03:33:14;;;;;;;16.15;12.60;;;;;;;;;;5070278;28;20059;-66
2021/09/13 03:36:18;;;;;;;19.20;13.35;;;;;;;;;;5070365;28;20043;-66
2021/09/13 03:39:23;;;;;;;15.70;12.25;;;;;;;;;;5069677;28;20043;-66
2021/09/13 03:42:27;;;;;;;21.80;13.25;;;;;;;;;;5069738;28;20056;-66
2021/09/13 03:45:32;;;;;;;20.45;14.00;;;;;;;;;;5070092;28;20495;-66
2021/09/13 03:49:05;;;;;;;22.33;14.05;;;;;;;;;;5069169;28;20047;-67
2021/09/13 03:52:09;;;;;;;18.42;13.13;;;;;;;;;;5069769;28;20040;-66
2021/09/13 03:55:14;;;;;;;19.25;12.77;;;;;;;;;;5069840;28;20047;-66
2021/09/13 03:58:19;;;;;;;16.35;13.43;;;;;;;;;;5069916;28;20380;-66
2021/09/13 04:01:24;;;;;;;21.35;15.85;;;;;;;;;;5069554;28;20055;-66
2021/09/13 04:04:29;;;;;;;27.02;14.68;;;;;;;;;;5069842;28;20499;-66
2021/09/13 04:07:59;;;;;;;16.25;14.13;;;;;;;;;;5058031;28;20055;-66
2021/09/13 04:12:03;;;;;;;14.48;12.52;;;;;;;;;;5069841;28;20507;-66
2021/09/13 04:15:22;;;;;;;18.60;12.93;;;;;;;;;;5070587;28;20047;-66
2021/09/13 04:18:46;;;;;;;23.00;13.23;;;;;;;;;;5070330;28;20051;-66
2021/09/13 04:22:10;;;;;;;17.23;13.48;;;;;;;;;;5070327;28;20412;-66
2021/09/13 04:25:22;;;;;;;16.27;12.82;;;;;;;;;;5057826;28;20044;-66
2021/09/13 04:28:44;;;;;;;22.20;14.02;;;;;;;;;;5069557;28;20044;-66
2021/09/13 04:31:56;;;;;;;21.55;14.65;;;;;;;;;;5069694;28;20052;-66
2021/09/13 04:35:14;;;;;;;19.23;14.45;;;;;;;;;;5069946;28;20059;-66
2021/09/13 04:38:24;;;;;;;20.60;16.05;;;;;;;;;;5070106;28;20040;-66
2021/09/13 04:41:36;;;;;;;25.08;18.33;;;;;;;;;;5069266;28;20055;-66
2021/09/13 04:45:11;;;;;;;33.08;17.85;;;;;;;;;;5069442;28;20412;-66
2021/09/13 04:48:39;;;;;;;49.38;17.27;;;;;;;;;;5068969;28;20051;-66
2021/09/13 04:52:09;;;;;;;33.10;17.08;;;;;;;;;;5071261;28;20047;-66
2021/09/13 04:55:22;;;;;;;39.33;18.30;;;;;;;;;;5072503;28;20051;-66
2021/09/13 04:58:27;;;;;;;26.00;17.67;;;;;;;;;;5072799;28;20507;-66
2021/09/13 05:01:31;;;;;;;25.50;17.77;;;;;;;;;;5073703;28;20052;-66
2021/09/13 05:04:35;;;;;;;35.60;17.33;;;;;;;;;;5072906;28;20051;-66
2021/09/13 05:07:40;;;;;;;27.48;18.95;;;;;;;;;;5072657;28;20055;-66
2021/09/13 05:10:44;;;;;;;32.92;18.75;;;;;;;;;;5072894;28;20051;-66
2021/09/13 05:13:51;;;;;;;26.67;16.90;;;;;;;;;;5073498;28;20055;-66
2021/09/13 05:16:57;;;;;;;25.88;15.80;;;;;;;;;;5072404;28;20055;-66
2021/09/13 05:20:04;;;;;;;31.27;16.45;;;;;;;;;;5072463;28;20036;-66
2021/09/13 05:23:09;;;;;;;25.08;15.40;;;;;;;;;;5072375;28;20502;-66
2021/09/13 05:26:14;;;;;;;26.17;15.07;;;;;;;;;;5072510;28;20582;-67
2021/09/13 05:29:18;;;;;;;18.30;15.13;;;;;;;;;;5073219;28;20039;-67
2021/09/13 05:32:22;;;;;;;24.48;12.70;;;;;;;;;;5072372;28;20043;-67
2021/09/13 05:35:26;;;;;;;27.40;12.95;;;;;;;;;;5072160;28;20064;-67
2021/09/13 05:38:35;;;;;;;17.60;12.23;;;;;;;;;;5072231;28;20059;-67
2021/09/13 05:41:52;;;;;;;32.10;14.02;;;;;;;;;;5072340;28;20052;-67
2021/09/13 05:45:00;;;;;;;22.75;14.13;;;;;;;;;;5060917;28;20043;-62
2021/09/13 05:48:05;;;;;;;23.17;10.93;;;;;;;;;;5071973;28;20052;-62
2021/09/13 05:51:16;;;;;;;17.83;11.50;;;;;;;;;;5071907;28;20055;-62
2021/09/13 05:54:22;;;;;;;15.07;11.07;;;;;;;;;;5071775;28;20063;-62
2021/09/13 05:57:27;;;;;;;16.67;11.57;;;;;;;;;;5071768;28;20047;-62
2021/09/13 06:00:33;;;;;;;29.48;15.18;;;;;;;;;;5071636;28;20392;-60
2021/09/13 06:03:38;;;;;;;31.40;16.58;;;;;;;;;;5070766;28;20051;-60
2021/09/13 06:06:52;;;;;;;42.03;17.35;;;;;;;;;;5071253;28;20412;-60
2021/09/13 06:09:57;;;;;;;29.17;15.52;;;;;;;;;;5071530;28;20047;-60
2021/09/13 06:13:03;;;;;;;30.35;15.75;;;;;;;;;;5071666;28;20043;-60
2021/09/13 06:16:08;;;;;;;33.22;16.13;;;;;;;;;;5071217;28;20047;-60
2021/09/13 06:19:15;;;;;;;39.92;17.17;;;;;;;;;;5071233;28;20086;-60
2021/09/13 06:22:19;;;;;;;29.33;18.05;;;;;;;;;;5071191;28;20048;-60
2021/09/13 06:25:25;;;;;;;32.22;18.63;;;;;;;;;;5071318;28;20669;-64
2021/09/13 06:28:29;;;;;;;24.92;16.10;;;;;;;;;;5071419;28;20395;-64
2021/09/13 06:31:34;;;;;;;21.40;16.10;;;;;;;;;;5070995;28;20400;-64
2021/09/13 06:34:41;;;;;;;23.58;15.50;;;;;;;;;;5071122;28;20047;-66
2021/09/13 06:37:45;;;;;;;32.35;16.95;;;;;;;;;;5071083;28;20040;-64
2021/09/13 06:40:50;;;;;;;21.58;16.17;;;;;;;;;;5070738;28;20055;-64
2021/09/13 06:43:54;;;;;;;33.38;15.98;;;;;;;;;;5071847;28;20048;-64
2021/09/13 06:47:07;;;;;;;24.80;15.73;;;;;;;;;;5070866;28;20043;-64
2021/09/13 06:50:14;;;;;;;26.95;18.25;;;;;;;;;;5070795;28;20044;-64
2021/09/13 06:53:18;;;;;;;39.55;16.35;;;;;;;;;;5070781;28;20399;-66
2021/09/13 06:56:23;;;;;;;28.20;16.55;;;;;;;;;;5070839;28;20051;-66
2021/09/13 06:59:27;;;;;;;33.28;16.27;;;;;;;;;;5071820;28;20138;-66
2021/09/13 07:02:32;;;;;;;29.90;15.75;;;;;;;;;;5071683;28;20051;-66
2021/09/13 07:05:36;;;;;;;36.90;15.05;;;;;;;;;;5072006;28;20396;-61
2021/09/13 07:08:40;;;;;;;25.33;14.45;;;;;;;;;;5071932;28;20048;-61
2021/09/13 07:11:44;;;;;;;20.15;12.52;;;;;;;;;;5071748;28;20044;-59
2021/09/13 07:14:50;;;;;;;27.52;14.73;;;;;;;;;;5071214;28;20396;-61
2021/09/13 07:17:55;;;;;;;32.25;14.32;;;;;;;;;;5071698;28;20067;-60
2021/09/13 07:21:00;;;;;;;27.55;13.40;;;;;;;;;;5071592;28;20047;-60
2021/09/13 07:24:05;;;;;;;26.50;12.38;;;;;;;;;;5071107;28;20610;-59
2021/09/13 07:27:10;;;;;;;33.38;11.95;;;;;;;;;;5071000;28;20043;-61
2021/09/13 07:30:14;;;;;;;24.15;12.40;;;;;;;;;;5070820;28;20051;-61
2021/09/13 07:33:19;;;;;;;32.58;12.02;;;;;;;;;;5069245;28;20055;-62
2021/09/13 07:36:23;;;;;;;24.17;12.60;;;;;;;;;;5071174;28;20416;-60
2021/09/13 07:39:47;;;;;;;21.77;12.55;;;;;;;;;;5070001;28;20111;-60
2021/09/13 07:42:51;;;;;;;28.13;12.48;;;;;;;;;;5070627;28;20059;-60
2021/09/13 07:45:56;;;;;;;25.05;13.07;;;;;;;;;;5070951;28;20591;-61
2021/09/13 07:49:00;;;;;;;27.40;13.25;;;;;;;;;;5070661;28;20052;-61
2021/09/13 07:52:04;;;;;;;25.77;14.52;;;;;;;;;;5070122;28;20040;-61
2021/09/13 07:55:09;;;;;;;21.42;11.30;;;;;;;;;;5070651;28;20435;-60
2021/09/13 07:58:14;;;;;;;15.73;11.98;;;;;;;;;;5070732;28;20491;-61
2021/09/13 08:01:18;;;;;;;19.65;11.23;;;;;;;;;;5070519;28;20407;-61
2021/09/13 08:04:23;;;;;;;15.48;9.80;;;;;;;;;;5070525;28;20039;-61
2021/09/13 08:07:27;;;;;;;21.60;12.88;;;;;;;;;;5069737;28;20048;-61
2021/09/13 08:10:32;;;;;;;25.48;12.40;;;;;;;;;;5070247;28;20383;-60
2021/09/13 08:13:40;;;;;;;15.55;9.32;;;;;;;;;;5070392;28;20047;-61
2021/09/13 08:16:45;;;;;;;17.10;9.95;;;;;;;;;;5070365;28;20043;-60
2021/09/13 08:19:50;;;;;;;12.38;9.63;;;;;;;;;;5070700;28;20036;-60
2021/09/13 08:22:56;;;;;;;16.42;9.93;;;;;;;;;;5070407;28;20061;-60
2021/09/13 08:26:04;;;;;;;17.40;8.60;;;;;;;;;;5070590;28;20040;-60
2021/09/13 08:29:14;;;;;;;8.73;7.82;;;;;;;;;;5074486;28;20078;-61
2021/09/13 08:32:18;;;;;;;12.35;8.40;;;;;;;;;;5074567;28;20037;-60
2021/09/13 08:35:23;;;;;;;19.63;8.25;;;;;;;;;;5074085;28;20045;-62
2021/09/13 08:38:27;;;;;;;9.07;7.32;;;;;;;;;;5073424;28;20040;-61
2021/09/13 08:41:32;;;;;;;11.60;7.75;;;;;;;;;;5073704;28;20052;-61
2021/09/13 08:44:38;;;;;;;12.90;7.93;;;;;;;;;;5074267;28;20039;-61
2021/09/13 08:47:56;;;;;;;10.32;7.90;;;;;;;;;;5074214;28;20040;-61
2021/09/13 08:54:17;;;;;;;12.25;7.47;;;;;;;;;;5073863;28;20044;-61
2021/09/13 08:57:23;;;;;;;15.55;8.43;;;;;;;;;;5073969;28;20037;-61
2021/09/13 09:00:30;;;;;;;16.95;8.93;;;;;;;;;;5073780;28;20069;-61
2021/09/13 09:03:39;;;;;;;22.60;10.10;;;;;;;;;;5073507;28;20048;-61
2021/09/13 09:06:44;;;;;;;12.18;8.30;;;;;;;;;;5073361;28;20063;-61
2021/09/13 09:10:08;;;;;;;10.35;7.72;;;;;;;;;;5073414;28;20049;-60
2021/09/13 09:13:15;;;;;;;10.70;8.32;;;;;;;;;;5073533;28;20151;-61
2021/09/13 09:16:19;;;;;;;10.52;7.95;;;;;;;;;;5072726;28;20494;-61
2021/09/13 09:19:24;;;;;;;9.05;7.45;;;;;;;;;;5073294;28;20509;-61
2021/09/13 09:22:29;;;;;;;10.10;7.93;;;;;;;;;;5073352;28;20048;-61
2021/09/13 09:25:39;;;;;;;10.05;8.00;;;;;;;;;;5073135;28;20033;-61
2021/09/13 09:28:43;;;;;;;13.13;7.63;;;;;;;;;;5071849;28;20155;-61
2021/09/13 09:31:47;;;;;;;8.32;7.25;;;;;;;;;;5072156;28;20143;-60
2021/09/13 09:34:53;;;;;;;9.30;7.07;;;;;;;;;;5073214;28;20040;-61
2021/09/13 09:37:57;;;;;;;8.32;7.40;;;;;;;;;;5073011;28;20041;-60
2021/09/13 09:41:07;;;;;;;12.60;7.50;;;;;;;;;;5073035;28;20045;-61
2021/09/13 09:44:12;;;;;;;9.95;6.88;;;;;;;;;;5073080;28;20050;-60
2021/09/13 09:47:20;;;;;;;18.40;9.48;;;;;;;;;;5072998;28;20032;-61
2021/09/13 09:50:30;;;;;;;15.93;8.48;;;;;;;;;;5072848;28;20044;-60
2021/09/13 09:53:40;;;;;;;7.35;6.28;;;;;;;;;;5072881;28;20493;-61
2021/09/13 09:56:46;;;;;;;13.73;7.93;;;;;;;;;;5072906;28;20484;-62
2021/09/13 09:59:51;;;;;;;11.68;6.95;;;;;;;;;;5071904;28;20029;-63
2021/09/13 10:02:56;;;;;;;8.00;6.85;;;;;;;;;;5072582;28;20056;-62
2021/09/13 10:06:00;;;;;;;11.02;6.80;;;;;;;;;;5072262;28;20036;-59
2021/09/13 10:09:04;;;;;;;13.40;7.22;;;;;;;;;;5071373;28;20044;-60
2021/09/13 10:12:09;;;;;;;14.50;7.10;;;;;;;;;;5072391;28;20047;-60
2021/09/13 10:15:14;;;;;;;10.88;6.68;;;;;;;;;;5072288;28;20047;-61
2021/09/13 10:18:18;;;;;;;11.25;6.53;;;;;;;;;;5072363;28;20039;-60
2021/09/13 10:21:23;;;;;;;12.48;7.90;;;;;;;;;;5071822;28;20374;-61
2021/09/13 10:24:31;;;;;;;9.27;6.70;;;;;;;;;;5071487;28;20048;-61
2021/09/13 10:27:43;;;;;;;9.57;6.25;;;;;;;;;;5071585;28;20104;-61
2021/09/13 10:30:54;;;;;;;10.10;6.90;;;;;;;;;;5071579;28;20048;-61
2021/09/13 10:33:59;;;;;;;9.45;6.68;;;;;;;;;;5071932;28;20661;-61
2021/09/13 10:37:06;;;;;;;15.18;8.75;;;;;;;;;;5072117;28;20040;-61
2021/09/13 10:40:16;;;;;;;11.52;7.78;;;;;;;;;;5071957;28;20037;-60
2021/09/13 10:43:21;;;;;;;7.57;6.78;;;;;;;;;;5071899;28;20051;-61
2021/09/13 10:46:58;;;;;;;10.25;6.80;;;;;;;;;;5071948;28;20032;-61
2021/09/13 10:50:11;;;;;;;10.70;6.90;;;;;;;;;;5070697;28;20032;-61
2021/09/13 10:53:18;;;;;;;19.38;10.65;;;;;;;;;;5071590;28;20063;-61
2021/09/13 10:56:23;;;;;;;8.75;7.05;;;;;;;;;;5071528;28;20040;-61
2021/09/13 10:59:43;;;;;;;11.60;6.80;;;;;;;;;;5071573;28;20048;-61
2021/09/13 11:03:07;;;;;;;8.02;6.07;;;;;;;;;;5070279;28;20041;-61
2021/09/13 11:06:11;;;;;;;7.90;6.40;;;;;;;;;;5071295;28;20040;-60
2021/09/13 11:09:19;;;;;;;8.50;6.95;;;;;;;;;;5071094;28;20040;-61
2021/09/13 11:12:24;;;;;;;13.05;7.82;;;;;;;;;;5071893;28;20036;-61
2021/09/13 11:15:28;;;;;;;11.15;6.80;;;;;;;;;;5071208;28;20052;-61
2021/09/13 11:18:35;;;;;;;8.95;6.90;;;;;;;;;;5071280;28;20499;-61
2021/09/13 11:21:49;;;;;;;11.00;7.25;;;;;;;;;;5070983;28;20036;-61
2021/09/13 11:24:55;;;;;;;10.80;7.53;;;;;;;;;;5070739;28;20036;-61
2021/09/13 11:28:03;;;;;;;11.40;7.63;;;;;;;;;;5071096;28;20037;-61
2021/09/13 11:31:08;;;;;;;10.98;8.10;;;;;;;;;;5071179;28;20048;-61
2021/09/13 11:34:13;;;;;;;12.13;8.98;;;;;;;;;;5071067;28;20044;-60
2021/09/13 11:37:37;;;;;;;14.07;8.77;;;;;;;;;;5071240;28;20047;-60
2021/09/13 11:40:42;;;;;;;15.85;9.00;;;;;;;;;;5071330;28;20040;-60
2021/09/13 11:44:01;;;;;;;11.13;9.00;;;;;;;;;;5071372;28;20055;-60
2021/09/13 11:47:07;;;;;;;14.73;9.30;;;;;;;;;;5070890;28;20496;-60
2021/09/13 11:50:11;;;;;;;11.40;8.93;;;;;;;;;;5071020;28;20037;-60
2021/09/13 11:53:16;;;;;;;12.07;9.20;;;;;;;;;;5071023;28;20036;-60
2021/09/13 11:56:22;;;;;;;18.10;10.05;;;;;;;;;;5070865;28;20036;-60
2021/09/13 11:59:27;;;;;;;13.23;9.82;;;;;;;;;;5070913;28;20503;-61
2021/09/13 12:02:31;;;;;;;11.60;10.07;;;;;;;;;;5073266;28;20480;-60
2021/09/13 12:05:40;;;;;;;12.50;10.45;;;;;;;;;;5074909;28;20483;-60
2021/09/13 12:08:44;;;;;;;19.95;10.45;;;;;;;;;;5074741;28;20055;-60
2021/09/13 12:11:48;;;;;;;17.65;11.07;;;;;;;;;;5074975;28;20055;-60
2021/09/13 12:14:53;;;;;;;16.67;11.30;;;;;;;;;;5075055;28;20490;-61
2021/09/13 12:17:58;;;;;;;15.75;10.50;;;;;;;;;;5074650;28;20119;-61
2021/09/13 12:21:02;;;;;;;15.68;10.05;;;;;;;;;;5074723;28;20047;-61
2021/09/13 12:24:07;;;;;;;15.48;10.90;;;;;;;;;;5074844;28;20048;-59
2021/09/13 12:27:14;;;;;;;14.48;11.18;;;;;;;;;;5074528;28;20043;-60
2021/09/13 12:30:23;;;;;;;14.88;10.82;;;;;;;;;;5074566;28;20059;-60
2021/09/13 12:33:41;;;;;;;20.80;12.30;;;;;;;;;;5074668;28;20447;-60
2021/09/13 12:36:45;;;;;;;14.05;11.35;;;;;;;;;;5074299;28;20043;-61
2021/09/13 12:39:59;;;;;;;17.27;11.40;;;;;;;;;;5074156;28;20723;-64
2021/09/13 12:43:04;;;;;;;13.45;10.90;;;;;;;;;;5073146;28;20051;-59
2021/09/13 12:46:08;;;;;;;17.75;10.65;;;;;;;;;;5074071;28;20507;-60
2021/09/13 12:49:12;;;;;;;12.63;9.90;;;;;;;;;;5073022;28;20039;-60
2021/09/13 12:52:17;;;;;;;12.63;9.18;;;;;;;;;;5071706;28;20047;-60
2021/09/13 12:55:22;;;;;;;26.13;11.82;;;;;;;;;;5073501;28;20503;-60
2021/09/13 12:58:32;;;;;;;13.40;9.30;;;;;;;;;;5073792;28;20048;-60
2021/09/13 13:01:38;;;;;;;12.13;8.90;;;;;;;;;;5073561;28;20499;-60
2021/09/13 13:04:43;;;;;;;19.55;9.60;;;;;;;;;;5073709;28;20057;-60
2021/09/13 13:07:47;;;;;;;16.10;9.07;;;;;;;;;;5073583;28;20506;-60
2021/09/13 13:10:52;;;;;;;14.88;10.80;;;;;;;;;;5073713;28;20036;-60
2021/09/13 13:13:57;;;;;;;11.93;8.18;;;;;;;;;;5073488;28;20040;-60
2021/09/13 13:17:01;;;;;;;9.20;8.23;;;;;;;;;;5072655;28;20040;-60
2021/09/13 13:20:06;;;;;;;11.40;8.43;;;;;;;;;;5073554;28;20366;-59
2021/09/13 13:23:10;;;;;;;16.15;10.18;;;;;;;;;;5073463;28;20057;-60
2021/09/13 13:26:14;;;;;;;12.77;8.15;;;;;;;;;;5073623;28;20039;-59
2021/09/13 13:29:19;;;;;;;15.43;8.45;;;;;;;;;;5073660;28;20037;-59
2021/09/13 13:32:23;;;;;;;15.65;8.30;;;;;;;;;;5073512;28;20040;-61
2021/09/13 13:35:28;;;;;;;9.25;7.32;;;;;;;;;;5073415;28;20530;-59
2021/09/13 13:38:32;;;;;;;16.77;7.88;;;;;;;;;;5073112;28;20033;-61
2021/09/13 13:41:36;;;;;;;11.93;6.80;;;;;;;;;;5073336;28;20044;-61
2021/09/13 13:44:41;;;;;;;11.55;7.78;;;;;;;;;;5073354;28;20063;-61
2021/09/13 13:47:46;;;;;;;12.30;7.20;;;;;;;;;;5072998;28;20059;-61
2021/09/13 13:50:50;;;;;;;13.32;6.90;;;;;;;;;;5073485;28;20392;-61
2021/09/13 13:53:54;;;;;;;16.77;6.97;;;;;;;;;;5072977;28;20043;-60
2021/09/13 13:56:59;;;;;;;16.95;7.57;;;;;;;;;;5072628;28;20045;-61
2021/09/13 14:00:07;;;;;;;20.17;7.45;;;;;;;;;;5072958;28;20037;-60
2021/09/13 14:03:17;;;;;;;16.50;7.00;;;;;;;;;;5072650;28;20048;-61
2021/09/13 14:06:22;;;;;;;14.70;6.75;;;;;;;;;;5071717;28;20049;-61
2021/09/13 14:09:27;;;;;;;11.30;7.32;;;;;;;;;;5072515;28;20046;-61
2021/09/13 14:12:31;;;;;;;22.60;7.00;;;;;;;;;;5072567;28;20036;-61
2021/09/13 14:15:36;;;;;;;14.43;6.22;;;;;;;;;;5072729;28;20043;-61
2021/09/13 14:18:41;;;;;;;13.52;6.80;;;;;;;;;;5072152;28;20047;-61
2021/09/13 14:21:45;;;;;;;16.35;6.50;;;;;;;;;;5072132;28;20053;-61
2021/09/13 14:24:49;;;;;;;14.55;7.57;;;;;;;;;;5071240;28;20040;-62
2021/09/13 14:27:54;;;;;;;15.70;6.07;;;;;;;;;;5072184;28;20061;-62
2021/09/13 14:30:58;;;;;;;10.60;5.90;;;;;;;;;;5069933;28;20052;-61
2021/09/13 14:34:03;;;;;;;11.18;6.30;;;;;;;;;;5071608;28;20680;-61
2021/09/13 14:37:07;;;;;;;10.05;6.90;;;;;;;;;;5072083;28;20045;-62
2021/09/13 14:40:11;;;;;;;13.82;5.63;;;;;;;;;;5071538;28;20041;-61
2021/09/13 14:43:16;;;;;;;10.27;5.78;;;;;;;;;;5071892;28;20404;-61
2021/09/13 14:46:20;;;;;;;7.97;5.78;;;;;;;;;;5071513;28;20468;-61
2021/09/13 14:49:25;;;;;;;13.52;6.65;;;;;;;;;;5069990;28;20044;-61
2021/09/13 14:52:29;;;;;;;12.77;6.18;;;;;;;;;;5071684;28;20050;-61
2021/09/13 14:55:34;;;;;;;8.95;5.40;;;;;;;;;;5071792;28;20056;-61
2021/09/13 14:58:39;;;;;;;11.32;6.32;;;;;;;;;;5071243;28;20033;-62
2021/09/13 15:01:43;;;;;;;14.57;6.90;;;;;;;;;;5071281;28;20396;-61
2021/09/13 15:04:47;;;;;;;8.45;6.40;;;;;;;;;;5071668;28;20040;-60
2021/09/13 15:07:52;;;;;;;11.50;6.90;;;;;;;;;;5070868;28;20397;-60
2021/09/13 15:10:56;;;;;;;11.68;5.55;;;;;;;;;;5070186;28;20040;-61
2021/09/13 15:14:02;;;;;;;13.82;6.50;;;;;;;;;;5070592;28;20052;-62
2021/09/13 15:17:06;;;;;;;17.10;7.25;;;;;;;;;;5071134;28;20028;-62
2021/09/13 15:20:11;;;;;;;11.88;7.40;;;;;;;;;;5071631;28;20052;-62
2021/09/13 15:23:16;;;;;;;10.27;6.70;;;;;;;;;;5071249;28;20055;-62
2021/09/13 15:26:20;;;;;;;13.75;6.78;;;;;;;;;;5070601;28;20051;-63
2021/09/13 15:29:25;;;;;;;15.05;6.82;;;;;;;;;;5071063;28;20044;-63
2021/09/13 15:32:29;;;;;;;14.25;7.65;;;;;;;;;;5071496;28;20040;-63
2021/09/13 15:35:33;;;;;;;14.68;7.45;;;;;;;;;;5070856;28;20041;-63
2021/09/13 15:38:38;;;;;;;13.50;6.88;;;;;;;;;;5071098;28;20511;-65
2021/09/13 15:41:44;;;;;;;11.70;7.15;;;;;;;;;;5071087;28;20057;-63
2021/09/13 15:44:48;;;;;;;17.15;7.72;;;;;;;;;;5070112;28;20408;-62
2021/09/13 15:47:52;;;;;;;19.52;7.45;;;;;;;;;;5070754;28;20028;-63
2021/09/13 15:50:57;;;;;;;14.38;7.10;;;;;;;;;;5070798;28;20037;-62
2021/09/13 15:54:01;;;;;;;12.30;6.10;;;;;;;;;;5070464;28;20032;-61
2021/09/13 15:57:05;;;;;;;10.57;6.35;;;;;;;;;;5070570;28;20049;-61
2021/09/13 16:00:10;;;;;;;14.77;7.28;;;;;;;;;;5070626;28;20040;-62
2021/09/13 16:03:14;;;;;;;11.18;6.82;;;;;;;;;;5070423;28;20048;-62
2021/09/13 16:06:20;;;;;;;7.80;6.25;;;;;;;;;;5070702;28;20345;-62
2021/09/13 16:09:24;;;;;;;17.38;7.30;;;;;;;;;;5070364;28;20040;-61
2021/09/13 16:12:29;;;;;;;26.02;8.65;;;;;;;;;;5070568;28;20051;-61
2021/09/13 16:15:33;;;;;;;9.70;7.50;;;;;;;;;;5070595;28;20052;-61
2021/09/13 16:18:37;;;;;;;13.73;7.63;;;;;;;;;;5070327;28;20041;-61
2021/09/13 16:21:42;;;;;;;11.23;7.15;;;;;;;;;;5070541;28;20036;-61
2021/09/13 16:24:47;;;;;;;12.13;7.78;;;;;;;;;;5070482;28;20036;-61
2021/09/13 16:27:51;;;;;;;12.77;7.57;;;;;;;;;;5070277;28;20059;-61
2021/09/13 16:30:56;;;;;;;13.25;6.97;;;;;;;;;;5070342;28;20040;-61
2021/09/13 16:34:00;;;;;;;14.75;7.15;;;;;;;;;;5070601;28;20044;-61
2021/09/13 16:37:06;;;;;;;14.02;7.82;;;;;;;;;;5070267;28;20037;-61
2021/09/13 16:40:11;;;;;;;12.05;7.38;;;;;;;;;;5070145;28;20044;-61
2021/09/13 16:43:15;;;;;;;12.00;7.43;;;;;;;;;;5069992;28;20055;-62
2021/09/13 16:46:19;;;;;;;17.17;7.25;;;;;;;;;;5069939;28;20040;-61
2021/09/13 16:49:24;;;;;;;15.85;9.98;;;;;;;;;;5073623;28;20044;-62
2021/09/13 16:52:28;;;;;;;14.82;7.90;;;;;;;;;;5073222;28;20542;-62
2021/09/13 16:55:32;;;;;;;12.52;7.05;;;;;;;;;;5073011;28;20415;-62
2021/09/13 16:58:37;;;;;;;17.83;7.90;;;;;;;;;;5073294;28;20055;-62
2021/09/13 17:01:41;;;;;;;12.15;7.43;;;;;;;;;;5073953;28;20047;-62
2021/09/13 17:04:45;;;;;;;12.57;7.20;;;;;;;;;;5073664;28;20055;-61
2021/09/13 17:07:49;;;;;;;15.80;7.75;;;;;;;;;;5073425;28;20064;-61
2021/09/13 17:10:54;;;;;;;18.58;7.93;;;;;;;;;;5073601;28;20048;-61
2021/09/13 17:13:59;;;;;;;15.52;7.70;;;;;;;;;;5073543;28;20047;-61
2021/09/13 17:17:02;;;;;;;12.48;7.53;;;;;;;;;;5073253;28;20047;-61
2021/09/13 17:20:07;;;;;;;18.13;8.40;;;;;;;;;;5073588;28;20501;-61
2021/09/13 17:23:11;;;;;;;11.40;7.13;;;;;;;;;;5073172;28;20059;-62
2021/09/13 17:26:15;;;;;;;18.02;8.82;;;;;;;;;;5073231;28;20036;-61
2021/09/13 17:29:20;;;;;;;11.02;7.45;;;;;;;;;;5072712;28;20055;-62
2021/09/13 17:32:24;;;;;;;16.20;7.63;;;;;;;;;;5073602;28;20036;-62
2021/09/13 17:35:28;;;;;;;17.00;8.40;;;;;;;;;;5073420;28;20071;-62
2021/09/13 17:38:33;;;;;;;12.80;7.05;;;;;;;;;;5072707;28;20036;-61
2021/09/13 17:41:38;;;;;;;14.70;7.68;;;;;;;;;;5070880;28;20487;-61
2021/09/13 17:44:42;;;;;;;11.40;7.18;;;;;;;;;;5072882;28;20043;-59
2021/09/13 17:47:46;;;;;;;15.07;8.43;;;;;;;;;;5071717;28;20040;-61
2021/09/13 17:50:52;;;;;;;11.63;8.27;;;;;;;;;;5071844;28;20047;-60
2021/09/13 17:53:56;;;;;;;14.07;8.23;;;;;;;;;;5071845;28;20032;-60
2021/09/13 17:57:00;;;;;;;15.52;8.15;;;;;;;;;;5072463;28;20569;-60
2021/09/13 18:00:06;;;;;;;13.32;8.05;;;;;;;;;;5071726;28;20369;-59
2021/09/13 18:03:16;;;;;;;16.20;9.05;;;;;;;;;;5072595;28;20040;-59
2021/09/13 18:06:20;;;;;;;12.15;8.50;;;;;;;;;;5072431;28;20396;-59
2021/09/13 18:09:25;;;;;;;17.58;8.85;;;;;;;;;;5072476;28;20044;-59
2021/09/13 18:12:29;;;;;;;19.45;9.00;;;;;;;;;;5072158;28;20028;-59
2021/09/13 18:15:33;;;;;;;33.53;9.80;;;;;;;;;;5072246;28;20029;-59
2021/09/13 18:18:37;;;;;;;11.45;8.40;;;;;;;;;;5072250;28;20044;-59